sensor_id;sensor_type;location;lat;lon;timestamp;temperature;humidity
34095;DHT22;20372;47.080;15.410;2022-11-14T00:00:25;7.90;99.90
34095;DHT22;20372;47.080;15.410;2022-11-14T00:02:50;8.00;99.90
34095;DHT22;20372;47.080;15.410;2022-11-14T00:05:16;8.00;99.90
34095;DHT22;20372;47.080;15.410;2022-11-14T00:07:42;8.00;99.90
34095;DHT22;20372;47.080;15.410;2022-11-14T00:10:07;7.90;99.90
34095;DHT22;20372;47.080;15.410;2022-11-14T00:12:33;7.80;99.90
34095;DHT22;20372;47.080;15.410;2022-11-14T00:14:59;7.90;99.90
34095;DHT22;20372;47.080;15.410;2022-11-14T00:17:24;8.00;99.90
34095;DHT22;20372;47.080;15.410;2022-11-14T00:19:50;8.00;99.90
34095;DHT22;20372;47.080;15.410;2022-11-14T00:22:16;7.90;99.90
34095;DHT22;20372;47.080;15.410;2022-11-14T00:24:41;8.00;99.90
34095;DHT22;20372;47.080;15.410;2022-11-14T00:27:07;8.00;99.90
34095;DHT22;20372;47.080;15.410;2022-11-14T00:29:32;8.00;99.90
34095;DHT22;20372;47.080;15.410;2022-11-14T00:31:58;7.90;99.90
34095;DHT22;20372;47.080;15.410;2022-11-14T00:34:23;7.90;99.90
34095;DHT22;20372;47.080;15.410;2022-11-14T00:36:49;7.90;99.90
34095;DHT22;20372;47.080;15.410;2022-11-14T00:39:14;7.90;99.90
34095;DHT22;20372;47.080;15.410;2022-11-14T00:41:40;8.00;99.90
34095;DHT22;20372;47.080;15.410;2022-11-14T00:44:06;8.10;99.90
34095;DHT22;20372;47.080;15.410;2022-11-14T00:46:32;8.10;99.90
34095;DHT22;20372;47.080;15.410;2022-11-14T00:48:58;8.10;99.90
34095;DHT22;20372;47.080;15.410;2022-11-14T00:51:23;8.00;99.90
34095;DHT22;20372;47.080;15.410;2022-11-14T00:53:49;7.90;99.90
34095;DHT22;20372;47.080;15.410;2022-11-14T00:56:15;7.90;99.90
34095;DHT22;20372;47.080;15.410;2022-11-14T00:58:40;7.80;99.90
34095;DHT22;20372;47.080;15.410;2022-11-14T01:01:06;7.80;99.90
34095;DHT22;20372;47.080;15.410;2022-11-14T01:03:31;7.70;99.90
34095;DHT22;20372;47.080;15.410;2022-11-14T01:06:01;7.80;99.90
34095;DHT22;20372;47.080;15.410;2022-11-14T01:08:27;7.70;99.90
34095;DHT22;20372;47.080;15.410;2022-11-14T01:10:53;7.70;99.90
34095;DHT22;20372;47.080;15.410;2022-11-14T01:13:18;7.70;99.90
34095;DHT22;20372;47.080;15.410;2022-11-14T01:15:45;7.70;99.90
34095;DHT22;20372;47.080;15.410;2022-11-14T01:18:12;7.60;99.90
34095;DHT22;20372;47.080;15.410;2022-11-14T01:20:39;7.70;99.90
34095;DHT22;20372;47.080;15.410;2022-11-14T01:23:05;7.70;99.90
34095;DHT22;20372;47.080;15.410;2022-11-14T01:25:34;7.70;99.90
34095;DHT22;20372;47.080;15.410;2022-11-14T01:27:59;7.80;99.90
34095;DHT22;20372;47.080;15.410;2022-11-14T01:30:25;7.80;99.90
34095;DHT22;20372;47.080;15.410;2022-11-14T01:32:50;7.80;99.90
34095;DHT22;20372;47.080;15.410;2022-11-14T01:35:16;7.90;99.90
34095;DHT22;20372;47.080;15.410;2022-11-14T01:37:42;7.90;99.90
34095;DHT22;20372;47.080;15.410;2022-11-14T01:40:07;8.00;99.90
34095;DHT22;20372;47.080;15.410;2022-11-14T01:42:33;8.00;99.90
34095;DHT22;20372;47.080;15.410;2022-11-14T01:44:59;8.00;99.90
34095;DHT22;20372;47.080;15.410;2022-11-14T01:47:26;8.10;99.90
34095;DHT22;20372;47.080;15.410;2022-11-14T01:49:54;8.00;99.90
34095;DHT22;20372;47.080;15.410;2022-11-14T01:52:29;8.10;99.90
34095;DHT22;20372;47.080;15.410;2022-11-14T01:54:56;8.10;99.90
34095;DHT22;20372;47.080;15.410;2022-11-14T01:57:24;8.00;99.90
34095;DHT22;20372;47.080;15.410;2022-11-14T01:59:52;8.00;99.90
34095;DHT22;20372;47.080;15.410;2022-11-14T02:02:20;8.10;99.90
34095;DHT22;20372;47.080;15.410;2022-11-14T02:04:47;8.10;99.90
34095;DHT22;20372;47.080;15.410;2022-11-14T02:07:13;8.10;99.90
34095;DHT22;20372;47.080;15.410;2022-11-14T02:09:40;8.10;99.90
34095;DHT22;20372;47.080;15.410;2022-11-14T02:12:08;8.10;99.90
34095;DHT22;20372;47.080;15.410;2022-11-14T02:14:35;8.10;99.90
34095;DHT22;20372;47.080;15.410;2022-11-14T02:17:02;8.00;99.90
34095;DHT22;20372;47.080;15.410;2022-11-14T02:19:44;7.80;99.90
34095;DHT22;20372;47.080;15.410;2022-11-14T02:22:10;7.60;99.90
34095;DHT22;20372;47.080;15.410;2022-11-14T02:24:36;7.60;99.90
34095;DHT22;20372;47.080;15.410;2022-11-14T02:27:03;7.60;99.90
34095;DHT22;20372;47.080;15.410;2022-11-14T02:29:30;7.60;99.90
34095;DHT22;20372;47.080;15.410;2022-11-14T02:31:55;7.60;99.90
34095;DHT22;20372;47.080;15.410;2022-11-14T02:34:21;7.60;99.90
34095;DHT22;20372;47.080;15.410;2022-11-14T02:36:47;7.50;99.90
34095;DHT22;20372;47.080;15.410;2022-11-14T02:39:12;7.60;99.90
34095;DHT22;20372;47.080;15.410;2022-11-14T02:41:38;7.50;99.90
34095;DHT22;20372;47.080;15.410;2022-11-14T02:44:03;7.50;99.90
34095;DHT22;20372;47.080;15.410;2022-11-14T02:46:29;7.60;99.90
34095;DHT22;20372;47.080;15.410;2022-11-14T02:48:54;7.50;99.90
34095;DHT22;20372;47.080;15.410;2022-11-14T02:51:20;7.50;99.90
34095;DHT22;20372;47.080;15.410;2022-11-14T02:53:45;7.50;99.90
34095;DHT22;20372;47.080;15.410;2022-11-14T02:56:11;7.50;99.90
34095;DHT22;20372;47.080;15.410;2022-11-14T02:58:36;7.50;99.90
34095;DHT22;20372;47.080;15.410;2022-11-14T03:01:02;7.50;99.90
34095;DHT22;20372;47.080;15.410;2022-11-14T03:03:28;7.50;99.90
34095;DHT22;20372;47.080;15.410;2022-11-14T03:05:57;7.50;99.90
34095;DHT22;20372;47.080;15.410;2022-11-14T03:08:23;7.50;99.90
34095;DHT22;20372;47.080;15.410;2022-11-14T03:10:48;7.50;99.90
34095;DHT22;20372;47.080;15.410;2022-11-14T03:13:14;7.50;99.90
34095;DHT22;20372;47.080;15.410;2022-11-14T03:15:39;7.50;99.90
34095;DHT22;20372;47.080;15.410;2022-11-14T03:18:05;7.60;99.90
34095;DHT22;20372;47.080;15.410;2022-11-14T03:20:30;7.70;99.90
34095;DHT22;20372;47.080;15.410;2022-11-14T03:22:56;7.70;99.90
34095;DHT22;20372;47.080;15.410;2022-11-14T03:25:22;7.70;99.90
34095;DHT22;20372;47.080;15.410;2022-11-14T03:27:47;7.80;99.90
34095;DHT22;20372;47.080;15.410;2022-11-14T03:30:13;7.70;99.90
34095;DHT22;20372;47.080;15.410;2022-11-14T03:32:39;7.60;99.90
34095;DHT22;20372;47.080;15.410;2022-11-14T03:35:04;7.50;99.90
34095;DHT22;20372;47.080;15.410;2022-11-14T03:37:30;7.50;99.90
34095;DHT22;20372;47.080;15.410;2022-11-14T03:39:56;7.60;99.90
34095;DHT22;20372;47.080;15.410;2022-11-14T03:42:21;7.60;99.90
34095;DHT22;20372;47.080;15.410;2022-11-14T03:44:47;7.60;99.90
34095;DHT22;20372;47.080;15.410;2022-11-14T03:47:12;7.50;99.90
34095;DHT22;20372;47.080;15.410;2022-11-14T03:49:38;7.50;99.90
34095;DHT22;20372;47.080;15.410;2022-11-14T03:52:04;7.50;99.90
34095;DHT22;20372;47.080;15.410;2022-11-14T03:54:29;7.50;99.90
34095;DHT22;20372;47.080;15.410;2022-11-14T03:56:55;7.60;99.90
34095;DHT22;20372;47.080;15.410;2022-11-14T03:59:20;7.60;99.90
34095;DHT22;20372;47.080;15.410;2022-11-14T04:01:46;7.70;99.90
34095;DHT22;20372;47.080;15.410;2022-11-14T04:04:13;7.70;99.90
34095;DHT22;20372;47.080;15.410;2022-11-14T04:06:39;7.70;99.90
34095;DHT22;20372;47.080;15.410;2022-11-14T04:09:05;7.70;99.90
34095;DHT22;20372;47.080;15.410;2022-11-14T04:11:31;7.70;99.90
34095;DHT22;20372;47.080;15.410;2022-11-14T04:13:56;7.70;99.90
34095;DHT22;20372;47.080;15.410;2022-11-14T04:16:22;7.80;99.90
34095;DHT22;20372;47.080;15.410;2022-11-14T04:18:47;7.90;99.90
34095;DHT22;20372;47.080;15.410;2022-11-14T04:21:13;7.80;99.90
34095;DHT22;20372;47.080;15.410;2022-11-14T04:23:38;7.90;99.90
34095;DHT22;20372;47.080;15.410;2022-11-14T04:26:04;7.80;99.90
34095;DHT22;20372;47.080;15.410;2022-11-14T04:28:30;7.80;99.90
34095;DHT22;20372;47.080;15.410;2022-11-14T04:30:55;7.80;99.90
34095;DHT22;20372;47.080;15.410;2022-11-14T04:33:21;7.80;99.90
34095;DHT22;20372;47.080;15.410;2022-11-14T04:35:46;7.80;99.90
34095;DHT22;20372;47.080;15.410;2022-11-14T04:38:12;7.90;99.90
34095;DHT22;20372;47.080;15.410;2022-11-14T04:40:38;7.90;99.90
34095;DHT22;20372;47.080;15.410;2022-11-14T04:43:03;7.90;99.90
34095;DHT22;20372;47.080;15.410;2022-11-14T04:45:29;7.80;99.90
34095;DHT22;20372;47.080;15.410;2022-11-14T04:47:54;7.80;99.90
34095;DHT22;20372;47.080;15.410;2022-11-14T04:50:20;7.80;99.90
34095;DHT22;20372;47.080;15.410;2022-11-14T04:52:45;7.80;99.90
34095;DHT22;20372;47.080;15.410;2022-11-14T04:55:11;7.70;99.90
34095;DHT22;20372;47.080;15.410;2022-11-14T04:57:37;7.70;99.90
34095;DHT22;20372;47.080;15.410;2022-11-14T05:00:03;7.70;99.90
34095;DHT22;20372;47.080;15.410;2022-11-14T05:02:32;7.70;99.90
34095;DHT22;20372;47.080;15.410;2022-11-14T05:04:57;7.70;99.90
34095;DHT22;20372;47.080;15.410;2022-11-14T05:07:23;7.80;99.90
34095;DHT22;20372;47.080;15.410;2022-11-14T05:09:48;7.80;99.90
34095;DHT22;20372;47.080;15.410;2022-11-14T05:12:14;7.80;99.90
34095;DHT22;20372;47.080;15.410;2022-11-14T05:14:40;7.70;99.90
34095;DHT22;20372;47.080;15.410;2022-11-14T05:17:05;7.80;99.90
34095;DHT22;20372;47.080;15.410;2022-11-14T05:19:31;7.70;99.90
34095;DHT22;20372;47.080;15.410;2022-11-14T05:21:56;7.70;99.90
34095;DHT22;20372;47.080;15.410;2022-11-14T05:24:22;7.70;99.90
34095;DHT22;20372;47.080;15.410;2022-11-14T05:26:47;7.70;99.90
34095;DHT22;20372;47.080;15.410;2022-11-14T05:29:13;7.70;99.90
34095;DHT22;20372;47.080;15.410;2022-11-14T05:31:38;7.70;99.90
34095;DHT22;20372;47.080;15.410;2022-11-14T05:34:04;7.80;99.90
34095;DHT22;20372;47.080;15.410;2022-11-14T05:36:30;7.80;99.90
34095;DHT22;20372;47.080;15.410;2022-11-14T05:38:55;7.80;99.90
34095;DHT22;20372;47.080;15.410;2022-11-14T05:41:21;7.80;99.90
34095;DHT22;20372;47.080;15.410;2022-11-14T05:43:46;7.80;99.90
34095;DHT22;20372;47.080;15.410;2022-11-14T05:46:13;7.90;99.90
34095;DHT22;20372;47.080;15.410;2022-11-14T05:48:39;7.90;99.90
34095;DHT22;20372;47.080;15.410;2022-11-14T05:51:05;8.00;99.90
34095;DHT22;20372;47.080;15.410;2022-11-14T05:53:32;7.90;99.90
34095;DHT22;20372;47.080;15.410;2022-11-14T05:55:59;7.90;99.90
34095;DHT22;20372;47.080;15.410;2022-11-14T05:58:25;7.90;99.90
34095;DHT22;20372;47.080;15.410;2022-11-14T06:00:50;7.90;99.90
34095;DHT22;20372;47.080;15.410;2022-11-14T06:03:16;7.80;99.90
34095;DHT22;20372;47.080;15.410;2022-11-14T06:05:42;7.80;99.90
34095;DHT22;20372;47.080;15.410;2022-11-14T06:08:07;7.80;99.90
34095;DHT22;20372;47.080;15.410;2022-11-14T06:10:33;7.80;99.90
34095;DHT22;20372;47.080;15.410;2022-11-14T06:12:59;7.90;99.90
34095;DHT22;20372;47.080;15.410;2022-11-14T06:15:24;7.80;99.90
34095;DHT22;20372;47.080;15.410;2022-11-14T06:17:53;7.80;99.90
34095;DHT22;20372;47.080;15.410;2022-11-14T06:20:19;7.80;99.90
34095;DHT22;20372;47.080;15.410;2022-11-14T06:22:45;8.00;99.90
34095;DHT22;20372;47.080;15.410;2022-11-14T06:25:10;8.00;99.90
34095;DHT22;20372;47.080;15.410;2022-11-14T06:27:36;8.10;99.90
34095;DHT22;20372;47.080;15.410;2022-11-14T06:30:02;8.20;99.90
34095;DHT22;20372;47.080;15.410;2022-11-14T06:32:27;8.20;99.90
34095;DHT22;20372;47.080;15.410;2022-11-14T06:34:53;8.20;99.90
34095;DHT22;20372;47.080;15.410;2022-11-14T06:37:18;8.20;99.90
34095;DHT22;20372;47.080;15.410;2022-11-14T06:39:44;8.20;99.90
34095;DHT22;20372;47.080;15.410;2022-11-14T06:42:10;8.20;99.90
34095;DHT22;20372;47.080;15.410;2022-11-14T06:44:36;8.30;99.90
34095;DHT22;20372;47.080;15.410;2022-11-14T06:47:01;8.40;99.90
34095;DHT22;20372;47.080;15.410;2022-11-14T06:49:27;8.40;99.90
34095;DHT22;20372;47.080;15.410;2022-11-14T06:51:53;8.50;99.90
34095;DHT22;20372;47.080;15.410;2022-11-14T06:54:18;8.50;99.90
34095;DHT22;20372;47.080;15.410;2022-11-14T06:56:44;8.50;99.90
34095;DHT22;20372;47.080;15.410;2022-11-14T06:59:10;8.50;99.90
34095;DHT22;20372;47.080;15.410;2022-11-14T07:01:35;8.50;99.90
34095;DHT22;20372;47.080;15.410;2022-11-14T07:04:01;8.60;99.90
34095;DHT22;20372;47.080;15.410;2022-11-14T07:06:27;8.70;99.90
34095;DHT22;20372;47.080;15.410;2022-11-14T07:08:53;8.80;99.90
34095;DHT22;20372;47.080;15.410;2022-11-14T07:11:20;8.80;99.90
34095;DHT22;20372;47.080;15.410;2022-11-14T07:13:52;8.80;99.90
34095;DHT22;20372;47.080;15.410;2022-11-14T07:16:18;8.90;99.90
34095;DHT22;20372;47.080;15.410;2022-11-14T07:18:43;9.00;99.90
34095;DHT22;20372;47.080;15.410;2022-11-14T07:21:09;9.00;99.90
34095;DHT22;20372;47.080;15.410;2022-11-14T07:23:38;8.90;99.90
34095;DHT22;20372;47.080;15.410;2022-11-14T07:26:04;8.70;99.90
34095;DHT22;20372;47.080;15.410;2022-11-14T07:28:34;8.60;99.90
34095;DHT22;20372;47.080;15.410;2022-11-14T07:31:03;8.50;99.90
34095;DHT22;20372;47.080;15.410;2022-11-14T07:33:31;8.50;99.90
34095;DHT22;20372;47.080;15.410;2022-11-14T07:35:56;8.70;99.90
34095;DHT22;20372;47.080;15.410;2022-11-14T07:38:22;8.70;99.90
34095;DHT22;20372;47.080;15.410;2022-11-14T07:40:58;8.70;99.90
34095;DHT22;20372;47.080;15.410;2022-11-14T07:43:24;8.70;99.90
34095;DHT22;20372;47.080;15.410;2022-11-14T07:45:50;8.80;99.90
34095;DHT22;20372;47.080;15.410;2022-11-14T07:48:16;8.90;99.90
34095;DHT22;20372;47.080;15.410;2022-11-14T07:50:42;9.00;99.90
34095;DHT22;20372;47.080;15.410;2022-11-14T07:53:07;9.00;99.90
34095;DHT22;20372;47.080;15.410;2022-11-14T07:55:36;9.00;99.90
34095;DHT22;20372;47.080;15.410;2022-11-14T07:58:02;9.00;99.90
34095;DHT22;20372;47.080;15.410;2022-11-14T08:00:28;8.90;99.90
34095;DHT22;20372;47.080;15.410;2022-11-14T08:02:53;9.00;99.90
34095;DHT22;20372;47.080;15.410;2022-11-14T08:05:19;9.00;99.90
34095;DHT22;20372;47.080;15.410;2022-11-14T08:07:45;9.10;99.90
34095;DHT22;20372;47.080;15.410;2022-11-14T08:10:11;9.00;99.90
34095;DHT22;20372;47.080;15.410;2022-11-14T08:12:38;9.00;99.90
34095;DHT22;20372;47.080;15.410;2022-11-14T08:15:05;9.10;99.90
34095;DHT22;20372;47.080;15.410;2022-11-14T08:17:31;9.20;99.90
34095;DHT22;20372;47.080;15.410;2022-11-14T08:19:56;9.40;99.90
34095;DHT22;20372;47.080;15.410;2022-11-14T08:22:22;9.40;99.90
34095;DHT22;20372;47.080;15.410;2022-11-14T08:24:48;9.50;99.90
34095;DHT22;20372;47.080;15.410;2022-11-14T08:27:14;9.50;99.90
34095;DHT22;20372;47.080;15.410;2022-11-14T08:29:39;9.70;99.90
34095;DHT22;20372;47.080;15.410;2022-11-14T08:32:05;9.80;99.90
34095;DHT22;20372;47.080;15.410;2022-11-14T08:34:31;9.90;99.90
34095;DHT22;20372;47.080;15.410;2022-11-14T08:36:56;10.00;99.90
34095;DHT22;20372;47.080;15.410;2022-11-14T08:39:22;10.10;99.90
34095;DHT22;20372;47.080;15.410;2022-11-14T08:41:48;10.20;99.90
34095;DHT22;20372;47.080;15.410;2022-11-14T08:44:14;10.20;99.90
34095;DHT22;20372;47.080;15.410;2022-11-14T08:46:39;10.20;99.90
34095;DHT22;20372;47.080;15.410;2022-11-14T08:49:05;10.10;99.90
34095;DHT22;20372;47.080;15.410;2022-11-14T08:51:30;10.00;99.90
34095;DHT22;20372;47.080;15.410;2022-11-14T08:53:56;10.10;99.90
34095;DHT22;20372;47.080;15.410;2022-11-14T08:56:22;10.10;99.90
34095;DHT22;20372;47.080;15.410;2022-11-14T08:58:47;10.30;99.90
34095;DHT22;20372;47.080;15.410;2022-11-14T09:01:13;10.40;99.90
34095;DHT22;20372;47.080;15.410;2022-11-14T09:03:38;10.50;99.90
34095;DHT22;20372;47.080;15.410;2022-11-14T09:06:04;10.70;99.90
34095;DHT22;20372;47.080;15.410;2022-11-14T09:08:30;10.80;99.90
34095;DHT22;20372;47.080;15.410;2022-11-14T09:10:59;10.80;99.90
34095;DHT22;20372;47.080;15.410;2022-11-14T09:13:25;10.90;99.90
34095;DHT22;20372;47.080;15.410;2022-11-14T09:15:51;10.80;99.90
34095;DHT22;20372;47.080;15.410;2022-11-14T09:18:17;10.60;99.90
34095;DHT22;20372;47.080;15.410;2022-11-14T09:20:43;10.90;99.90
34095;DHT22;20372;47.080;15.410;2022-11-14T09:23:08;11.30;99.90
34095;DHT22;20372;47.080;15.410;2022-11-14T09:25:34;11.40;99.90
34095;DHT22;20372;47.080;15.410;2022-11-14T09:28:09;11.40;99.90
34095;DHT22;20372;47.080;15.410;2022-11-14T09:30:35;11.40;99.90
34095;DHT22;20372;47.080;15.410;2022-11-14T09:33:02;11.40;99.90
34095;DHT22;20372;47.080;15.410;2022-11-14T09:35:28;11.60;99.90
34095;DHT22;20372;47.080;15.410;2022-11-14T09:38:02;11.80;99.90
34095;DHT22;20372;47.080;15.410;2022-11-14T09:40:28;11.90;99.90
34095;DHT22;20372;47.080;15.410;2022-11-14T09:43:17;11.90;99.90
34095;DHT22;20372;47.080;15.410;2022-11-14T09:45:41;11.90;99.90
34095;DHT22;20372;47.080;15.410;2022-11-14T09:48:14;12.00;99.90
34095;DHT22;20372;47.080;15.410;2022-11-14T09:50:44;11.60;99.90
34095;DHT22;20372;47.080;15.410;2022-11-14T09:56:02;11.30;99.90
34095;DHT22;20372;47.080;15.410;2022-11-14T09:58:28;11.50;99.90
34095;DHT22;20372;47.080;15.410;2022-11-14T10:00:55;11.70;99.90
34095;DHT22;20372;47.080;15.410;2022-11-14T10:03:26;11.40;99.90
34095;DHT22;20372;47.080;15.410;2022-11-14T10:11:12;12.10;99.90
34095;DHT22;20372;47.080;15.410;2022-11-14T10:18:34;12.00;99.90
34095;DHT22;20372;47.080;15.410;2022-11-14T10:23:36;12.20;99.90
34095;DHT22;20372;47.080;15.410;2022-11-14T10:28:40;11.90;99.90
34095;DHT22;20372;47.080;15.410;2022-11-14T10:34:01;12.10;99.90
34095;DHT22;20372;47.080;15.410;2022-11-14T10:41:41;12.90;99.90
34095;DHT22;20372;47.080;15.410;2022-11-14T10:44:09;13.20;99.90
34095;DHT22;20372;47.080;15.410;2022-11-14T10:46:37;13.40;99.90
34095;DHT22;20372;47.080;15.410;2022-11-14T10:49:12;13.40;99.90
34095;DHT22;20372;47.080;15.410;2022-11-14T10:51:43;13.20;99.90
34095;DHT22;20372;47.080;15.410;2022-11-14T10:56:55;12.70;99.90
34095;DHT22;20372;47.080;15.410;2022-11-14T10:59:20;12.30;99.90
34095;DHT22;20372;47.080;15.410;2022-11-14T11:06:50;12.60;99.90
34095;DHT22;20372;47.080;15.410;2022-11-14T11:09:17;12.60;99.90
34095;DHT22;20372;47.080;15.410;2022-11-14T11:12:02;12.60;99.90
34095;DHT22;20372;47.080;15.410;2022-11-14T11:14:28;12.80;99.90
34095;DHT22;20372;47.080;15.410;2022-11-14T11:19:40;13.50;99.90
34095;DHT22;20372;47.080;15.410;2022-11-14T11:22:25;13.50;99.90
34095;DHT22;20372;47.080;15.410;2022-11-14T11:24:51;13.10;99.90
34095;DHT22;20372;47.080;15.410;2022-11-14T11:29:43;13.10;99.90
34095;DHT22;20372;47.080;15.410;2022-11-14T11:32:08;13.10;99.90
34095;DHT22;20372;47.080;15.410;2022-11-14T11:34:34;13.10;99.90
34095;DHT22;20372;47.080;15.410;2022-11-14T11:39:39;12.90;99.90
34095;DHT22;20372;47.080;15.410;2022-11-14T11:42:07;12.90;99.90
34095;DHT22;20372;47.080;15.410;2022-11-14T11:44:35;12.80;99.90
34095;DHT22;20372;47.080;15.410;2022-11-14T11:47:03;12.90;99.90
34095;DHT22;20372;47.080;15.410;2022-11-14T11:52:04;13.10;99.90
34095;DHT22;20372;47.080;15.410;2022-11-14T11:54:40;13.00;99.90
34095;DHT22;20372;47.080;15.410;2022-11-14T11:57:11;13.10;99.90
34095;DHT22;20372;47.080;15.410;2022-11-14T11:59:41;13.30;99.90
34095;DHT22;20372;47.080;15.410;2022-11-14T12:02:26;13.30;99.90
34095;DHT22;20372;47.080;15.410;2022-11-14T12:04:53;13.10;99.90
34095;DHT22;20372;47.080;15.410;2022-11-14T12:07:41;13.30;99.90
34095;DHT22;20372;47.080;15.410;2022-11-14T12:10:15;13.30;99.90
34095;DHT22;20372;47.080;15.410;2022-11-14T12:20:26;13.50;99.90
34095;DHT22;20372;47.080;15.410;2022-11-14T12:30:52;13.90;99.90
34095;DHT22;20372;47.080;15.410;2022-11-14T12:33:39;13.80;99.90
34095;DHT22;20372;47.080;15.410;2022-11-14T12:36:08;13.70;99.90
34095;DHT22;20372;47.080;15.410;2022-11-14T12:38:46;13.70;99.90
34095;DHT22;20372;47.080;15.410;2022-11-14T12:41:18;13.90;99.90
34095;DHT22;20372;47.080;15.410;2022-11-14T12:43:45;13.80;99.90
34095;DHT22;20372;47.080;15.410;2022-11-14T12:46:12;13.70;99.90
34095;DHT22;20372;47.080;15.410;2022-11-14T12:48:41;13.60;99.90
34095;DHT22;20372;47.080;15.410;2022-11-14T12:51:49;13.50;99.90
34095;DHT22;20372;47.080;15.410;2022-11-14T12:53:56;13.40;99.90
34095;DHT22;20372;47.080;15.410;2022-11-14T13:06:21;13.50;99.90
34095;DHT22;20372;47.080;15.410;2022-11-14T13:14:17;13.40;99.90
34095;DHT22;20372;47.080;15.410;2022-11-14T13:19:58;13.30;99.90
34095;DHT22;20372;47.080;15.410;2022-11-14T13:22:43;13.30;99.90
34095;DHT22;20372;47.080;15.410;2022-11-14T13:27:35;12.90;99.90
34095;DHT22;20372;47.080;15.410;2022-11-14T13:30:04;12.70;99.90
34095;DHT22;20372;47.080;15.410;2022-11-14T13:35:16;12.50;99.90
34095;DHT22;20372;47.080;15.410;2022-11-14T13:40:37;12.60;99.90
34095;DHT22;20372;47.080;15.410;2022-11-14T13:46:31;12.50;99.90
34095;DHT22;20372;47.080;15.410;2022-11-14T13:51:10;12.60;99.90
34095;DHT22;20372;47.080;15.410;2022-11-14T13:53:39;12.60;99.90
34095;DHT22;20372;47.080;15.410;2022-11-14T13:58:48;12.40;99.90
34095;DHT22;20372;47.080;15.410;2022-11-14T14:06:30;12.20;99.90
34095;DHT22;20372;47.080;15.410;2022-11-14T14:11:37;12.30;99.90
34095;DHT22;20372;47.080;15.410;2022-11-14T14:14:09;12.30;99.90
34095;DHT22;20372;47.080;15.410;2022-11-14T14:16:44;12.30;99.90
34095;DHT22;20372;47.080;15.410;2022-11-14T14:19:19;12.30;99.90
34095;DHT22;20372;47.080;15.410;2022-11-14T14:24:24;12.30;99.90
34095;DHT22;20372;47.080;15.410;2022-11-14T14:29:22;12.20;99.90
34095;DHT22;20372;47.080;15.410;2022-11-14T14:31:48;12.10;99.90
34095;DHT22;20372;47.080;15.410;2022-11-14T14:36:52;12.10;99.90
34095;DHT22;20372;47.080;15.410;2022-11-14T14:39:25;12.00;99.90
34095;DHT22;20372;47.080;15.410;2022-11-14T14:41:51;12.00;99.90
34095;DHT22;20372;47.080;15.410;2022-11-14T14:44:29;12.00;99.90
34095;DHT22;20372;47.080;15.410;2022-11-14T14:46:58;12.00;99.90
34095;DHT22;20372;47.080;15.410;2022-11-14T14:49:38;12.00;99.90
34095;DHT22;20372;47.080;15.410;2022-11-14T14:54:52;11.80;99.90
34095;DHT22;20372;47.080;15.410;2022-11-14T14:57:18;11.80;99.90
34095;DHT22;20372;47.080;15.410;2022-11-14T14:59:44;11.80;99.90
34095;DHT22;20372;47.080;15.410;2022-11-14T15:02:14;11.80;99.90
34095;DHT22;20372;47.080;15.410;2022-11-14T15:04:40;11.80;99.90
34095;DHT22;20372;47.080;15.410;2022-11-14T15:07:16;11.80;99.90
34095;DHT22;20372;47.080;15.410;2022-11-14T15:09:49;11.80;99.90
34095;DHT22;20372;47.080;15.410;2022-11-14T15:12:15;11.80;99.90
34095;DHT22;20372;47.080;15.410;2022-11-14T15:14:41;11.80;99.90
34095;DHT22;20372;47.080;15.410;2022-11-14T15:17:08;11.70;99.90
34095;DHT22;20372;47.080;15.410;2022-11-14T15:19:41;11.70;99.90
34095;DHT22;20372;47.080;15.410;2022-11-14T15:24:35;11.70;99.90
34095;DHT22;20372;47.080;15.410;2022-11-14T15:27:04;11.60;99.90
34095;DHT22;20372;47.080;15.410;2022-11-14T15:29:30;11.60;99.90
34095;DHT22;20372;47.080;15.410;2022-11-14T15:31:58;11.60;99.90
34095;DHT22;20372;47.080;15.410;2022-11-14T15:34:31;11.50;99.90
34095;DHT22;20372;47.080;15.410;2022-11-14T15:37:06;11.40;99.90
34095;DHT22;20372;47.080;15.410;2022-11-14T15:39:32;11.30;99.90
34095;DHT22;20372;47.080;15.410;2022-11-14T15:42:40;11.20;99.90
34095;DHT22;20372;47.080;15.410;2022-11-14T15:44:47;11.10;99.90
34095;DHT22;20372;47.080;15.410;2022-11-14T15:47:26;11.00;99.90
34095;DHT22;20372;47.080;15.410;2022-11-14T15:52:22;11.10;99.90
34095;DHT22;20372;47.080;15.410;2022-11-14T15:54:48;11.00;99.90
34095;DHT22;20372;47.080;15.410;2022-11-14T15:57:14;11.00;99.90
34095;DHT22;20372;47.080;15.410;2022-11-14T15:59:41;10.90;99.90
34095;DHT22;20372;47.080;15.410;2022-11-14T16:02:17;10.90;99.90
34095;DHT22;20372;47.080;15.410;2022-11-14T16:04:43;10.80;99.90
34095;DHT22;20372;47.080;15.410;2022-11-14T16:07:10;10.80;99.90
34095;DHT22;20372;47.080;15.410;2022-11-14T16:09:36;10.80;99.90
34095;DHT22;20372;47.080;15.410;2022-11-14T16:12:02;10.70;99.90
34095;DHT22;20372;47.080;15.410;2022-11-14T16:14:27;10.70;99.90
34095;DHT22;20372;47.080;15.410;2022-11-14T16:16:53;10.70;99.90
34095;DHT22;20372;47.080;15.410;2022-11-14T16:19:18;10.60;99.90
34095;DHT22;20372;47.080;15.410;2022-11-14T16:21:46;10.60;99.90
34095;DHT22;20372;47.080;15.410;2022-11-14T16:24:13;10.60;99.90
34095;DHT22;20372;47.080;15.410;2022-11-14T16:26:39;10.70;99.90
34095;DHT22;20372;47.080;15.410;2022-11-14T16:29:05;10.60;99.90
34095;DHT22;20372;47.080;15.410;2022-11-14T16:31:32;10.60;99.90
34095;DHT22;20372;47.080;15.410;2022-11-14T16:33:57;10.60;99.90
34095;DHT22;20372;47.080;15.410;2022-11-14T16:36:23;10.60;99.90
34095;DHT22;20372;47.080;15.410;2022-11-14T16:38:49;10.50;99.90
34095;DHT22;20372;47.080;15.410;2022-11-14T16:41:14;10.50;99.90
34095;DHT22;20372;47.080;15.410;2022-11-14T16:43:40;10.50;99.90
34095;DHT22;20372;47.080;15.410;2022-11-14T16:46:06;10.50;99.90
34095;DHT22;20372;47.080;15.410;2022-11-14T16:48:32;10.60;99.90
34095;DHT22;20372;47.080;15.410;2022-11-14T16:51:01;10.60;99.90
34095;DHT22;20372;47.080;15.410;2022-11-14T16:53:27;10.50;99.90
34095;DHT22;20372;47.080;15.410;2022-11-14T16:55:53;10.50;99.90
34095;DHT22;20372;47.080;15.410;2022-11-14T16:58:19;10.50;99.90
34095;DHT22;20372;47.080;15.410;2022-11-14T17:00:44;10.50;99.90
34095;DHT22;20372;47.080;15.410;2022-11-14T17:03:10;10.50;99.90
34095;DHT22;20372;47.080;15.410;2022-11-14T17:05:42;10.50;99.90
34095;DHT22;20372;47.080;15.410;2022-11-14T17:08:08;10.50;99.90
34095;DHT22;20372;47.080;15.410;2022-11-14T17:10:38;10.50;99.90
34095;DHT22;20372;47.080;15.410;2022-11-14T17:13:03;10.50;99.90
34095;DHT22;20372;47.080;15.410;2022-11-14T17:15:30;10.50;99.90
34095;DHT22;20372;47.080;15.410;2022-11-14T17:17:56;10.50;99.90
34095;DHT22;20372;47.080;15.410;2022-11-14T17:20:21;10.40;99.90
34095;DHT22;20372;47.080;15.410;2022-11-14T17:22:47;10.50;99.90